createdAt,value
2019-04-07T00:01:53.846Z,98992.16
2019-04-07T00:06:58.840Z,98989.92
2019-04-07T00:12:03.428Z,98980.69
2019-04-07T00:17:08.281Z,98980.34
2019-04-07T00:22:13.358Z,98973.73
2019-04-07T00:27:17.928Z,98975.95
2019-04-07T00:32:22.422Z,98969.19
2019-04-07T00:37:27.336Z,98969.00
2019-04-07T00:42:31.834Z,98967.35
2019-04-07T00:47:37.228Z,98971.13
2019-04-07T00:52:41.725Z,98971.52
2019-04-07T00:57:46.154Z,98967.59
2019-04-07T01:02:50.652Z,98966.58
2019-04-07T01:07:56.425Z,98965.25
2019-04-07T01:13:01.069Z,98962.46
2019-04-07T01:18:05.599Z,98963.23
2019-04-07T01:23:10.624Z,98964.45
2019-04-07T01:28:15.001Z,98959.36
2019-04-07T01:33:19.425Z,98958.73
2019-04-07T01:38:23.871Z,98958.69
2019-04-07T01:43:32.742Z,98957.98
2019-04-07T01:48:38.846Z,98960.92
2019-04-07T01:53:51.862Z,98953.52
2019-04-07T01:59:04.006Z,98950.13
2019-04-07T02:04:10.197Z,98947.87
2019-04-07T02:09:17.326Z,98938.72
2019-04-07T02:14:41.989Z,98940.08
2019-04-07T02:20:06.763Z,98933.02
2019-04-07T02:25:16.113Z,98924.88
2019-04-07T02:30:31.091Z,98937.45
2019-04-07T02:35:56.058Z,98943.28
2019-04-07T02:41:10.315Z,98947.11
2019-04-07T02:46:22.554Z,98943.08
2019-04-07T02:51:38.849Z,98947.70
2019-04-07T02:56:48.512Z,98944.95
2019-04-07T03:01:55.315Z,98953.00
2019-04-07T03:07:04.809Z,98953.00
2019-04-07T03:12:17.794Z,98953.20
2019-04-07T03:17:24.033Z,98957.52
2019-04-07T03:22:47.109Z,98958.98
2019-04-07T03:27:55.902Z,98958.91
2019-04-07T03:33:05.172Z,98967.27
2019-04-07T03:38:27.300Z,98966.27
2019-04-07T03:43:37.890Z,98968.92
2019-04-07T03:48:53.691Z,98974.20
2019-04-07T03:54:00.604Z,98975.21
2019-04-07T03:59:16.490Z,98975.27
2019-04-07T04:04:25.408Z,98976.06
2019-04-07T04:09:48.077Z,98980.95
2019-04-07T04:15:03.643Z,98978.70
2019-04-07T04:20:08.492Z,98988.63
2019-04-07T04:25:15.535Z,98984.70
2019-04-07T04:30:21.098Z,98994.48
2019-04-07T04:35:26.619Z,98997.66
2019-04-07T04:40:32.299Z,99002.59
2019-04-07T04:45:36.861Z,98998.62
2019-04-07T04:50:42.025Z,99000.87
2019-04-07T04:55:47.179Z,99008.52
2019-04-07T05:00:52.380Z,99019.58
2019-04-07T05:05:57.566Z,99016.02
2019-04-07T05:11:02.294Z,99022.50
2019-04-07T05:16:07.133Z,99013.92
2019-04-07T05:21:11.861Z,99010.55
2019-04-07T05:26:16.312Z,99019.58
2019-04-07T05:31:21.063Z,99013.50
2019-04-07T05:36:26.885Z,99019.95
2019-04-07T05:41:32.645Z,99023.20
2019-04-07T05:46:40.102Z,99024.13
2019-04-07T05:51:44.629Z,99027.75
2019-04-07T05:56:49.303Z,99029.95
2019-04-07T06:01:59.339Z,99027.52
2019-04-07T06:07:00.914Z,99028.37
2019-04-07T06:12:07.984Z,99031.21
2019-04-07T06:17:12.051Z,99039.06
2019-04-07T06:22:19.371Z,99030.36
2019-04-07T06:27:22.889Z,99040.28
2019-04-07T06:32:27.507Z,99045.27
2019-04-07T06:37:32.188Z,99052.30
2019-04-07T06:42:37.545Z,99043.56
2019-04-07T06:47:43.757Z,99045.00
2019-04-07T06:52:56.602Z,99053.69
2019-04-07T06:58:06.068Z,99041.30
2019-04-07T07:03:18.218Z,99042.56
2019-04-07T07:08:26.869Z,99045.56
2019-04-07T07:13:36.374Z,99041.00
2019-04-07T07:19:02.052Z,99042.67
2019-04-07T07:24:07.133Z,99038.88
2019-04-07T07:29:14.675Z,99047.34
2019-04-07T07:34:18.708Z,99034.58
2019-04-07T07:39:23.420Z,99038.93
2019-04-07T07:44:28.870Z,99043.43
2019-04-07T07:49:36.085Z,99045.23
2019-04-07T07:54:40.160Z,99047.96
2019-04-07T07:59:44.772Z,99043.88
2019-04-07T08:04:49.948Z,99043.52
2019-04-07T08:09:56.020Z,99037.19
2019-04-07T08:15:00.810Z,99040.80
2019-04-07T08:20:07.856Z,99042.72
2019-04-07T08:25:12.607Z,99037.17
2019-04-07T08:30:18.489Z,99041.08
2019-04-07T08:35:23.306Z,99035.83
2019-04-07T08:40:28.544Z,99033.27
2019-04-07T08:45:33.857Z,99039.70
2019-04-07T08:50:38.311Z,99035.59
2019-04-07T08:55:42.947Z,99033.08
2019-04-07T09:00:51.632Z,99032.77
2019-04-07T09:05:57.441Z,99031.83
2019-04-07T09:11:13.141Z,99032.58
2019-04-07T09:16:34.824Z,99035.09
2019-04-07T09:21:59.351Z,99036.53
2019-04-07T09:27:09.058Z,99024.72
2019-04-07T09:32:21.486Z,99023.31
2019-04-07T09:37:37.788Z,99027.93
2019-04-07T09:42:46.005Z,99021.83
2019-04-07T09:47:52.315Z,99019.97
2019-04-07T09:53:01.447Z,99028.41
2019-04-07T09:58:14.903Z,99022.28
2019-04-07T10:03:21.071Z,99023.41
2019-04-07T10:08:39.308Z,99023.92
2019-04-07T10:13:49.558Z,99016.44
2019-04-07T10:18:56.527Z,99027.44
2019-04-07T10:24:02.882Z,99014.45
2019-04-07T10:29:23.957Z,99016.36
2019-04-07T10:34:33.150Z,99009.88
2019-04-07T10:39:39.891Z,99003.97
2019-04-07T10:44:52.154Z,99004.59
2019-04-07T10:50:06.173Z,98996.81
2019-04-07T10:55:11.837Z,99003.05
2019-04-07T11:00:35.138Z,98992.48
2019-04-07T11:05:53.790Z,98998.12
2019-04-07T11:11:12.202Z,98996.30
2019-04-07T11:16:22.499Z,98999.59
2019-04-07T11:21:33.840Z,98997.33
2019-04-07T11:26:55.903Z,98995.85
2019-04-07T11:32:17.930Z,98993.25
2019-04-07T11:37:27.509Z,98998.36
2019-04-07T11:42:37.037Z,98991.05
2019-04-07T11:47:46.045Z,98990.33
2019-04-07T11:52:52.695Z,98982.49
2019-04-07T11:58:10.889Z,98991.68
2019-04-07T12:03:13.245Z,98988.72
2019-04-07T12:08:37.685Z,98986.26
2019-04-07T12:13:56.339Z,98979.20
2019-04-07T12:19:15.034Z,98968.95
2019-04-07T12:24:33.663Z,98971.54
2019-04-07T12:29:56.854Z,98974.22
2019-04-07T12:35:09.182Z,98960.39
2019-04-07T12:40:18.288Z,98967.16
2019-04-07T12:45:39.853Z,98958.37
2019-04-07T12:50:49.044Z,98952.58
2019-04-07T12:56:03.238Z,98945.72
2019-04-07T13:01:16.307Z,98947.16
2019-04-07T13:06:24.154Z,98937.95
2019-04-07T13:11:49.714Z,98927.70
2019-04-07T13:17:00.134Z,98920.01
2019-04-07T13:22:13.165Z,98912.58
2019-04-07T13:27:22.163Z,98919.85
2019-04-07T13:32:42.177Z,98918.18
2019-04-07T13:37:44.933Z,98917.16
2019-04-07T13:43:06.831Z,98926.31
2019-04-07T13:48:28.957Z,98918.40
2019-04-07T13:53:37.937Z,98912.57
2019-04-07T13:58:44.287Z,98905.13
2019-04-07T14:03:56.539Z,98917.83
2019-04-07T14:09:02.571Z,98913.16
2019-04-07T14:14:13.091Z,98913.50
2019-04-07T14:19:29.166Z,98912.86
2019-04-07T14:24:38.302Z,98909.52
2019-04-07T14:29:44.929Z,98906.45
2019-04-07T14:34:56.573Z,98905.97
2019-04-07T14:40:15.177Z,98904.34
2019-04-07T14:45:25.129Z,98917.52
2019-04-07T14:50:34.969Z,98915.84
2019-04-07T14:55:49.613Z,98904.86
2019-04-07T15:01:08.043Z,98905.59
2019-04-07T15:06:12.605Z,98905.72
2019-04-07T15:11:19.550Z,98901.64
2019-04-07T15:16:24.268Z,98897.83
2019-04-07T15:21:29.798Z,98897.31
2019-04-07T15:26:34.783Z,98898.98
2019-04-07T15:31:39.540Z,98895.98
2019-04-07T15:36:44.288Z,98901.19
2019-04-07T15:41:49.566Z,98902.44
2019-04-07T15:46:54.577Z,98896.34
2019-04-07T15:51:59.371Z,98902.02
2019-04-07T15:57:05.709Z,98909.22
2019-04-07T16:02:11.311Z,98920.16
2019-04-07T16:07:18.694Z,98915.30
2019-04-07T16:12:23.009Z,98922.92
2019-04-07T16:17:27.702Z,98926.61
2019-04-07T16:22:32.286Z,98926.10
2019-04-07T16:27:39.678Z,98934.70
2019-04-07T16:32:44.974Z,98936.16
2019-04-07T16:37:49.552Z,98943.22
2019-04-07T16:43:09.178Z,98951.19
2019-04-07T16:48:04.496Z,98951.36
2019-04-07T16:53:08.852Z,98956.63
2019-04-07T16:58:14.486Z,98958.46
2019-04-07T17:03:19.144Z,98952.11
2019-04-07T17:08:24.725Z,98949.66
2019-04-07T17:13:39.481Z,98957.09
2019-04-07T17:18:39.361Z,98970.81
2019-04-07T17:23:45.526Z,98964.45
2019-04-07T17:28:50.360Z,98971.75
2019-04-07T17:33:55.610Z,98976.59
2019-04-07T17:39:14.420Z,98981.14
2019-04-07T17:44:26.659Z,98986.54
2019-04-07T17:49:41.536Z,98986.25
2019-04-07T17:54:52.494Z,98989.21
2019-04-07T18:00:04.691Z,98994.56
2019-04-07T18:05:22.031Z,98998.09
2019-04-07T18:10:26.647Z,99003.11
2019-04-07T18:15:38.041Z,99003.67
2019-04-07T18:20:54.054Z,99014.62
2019-04-07T18:26:04.244Z,99012.05
2019-04-07T18:31:11.790Z,99015.30
2019-04-07T18:36:20.811Z,99026.41
2019-04-07T18:41:40.382Z,99032.63
2019-04-07T18:46:50.172Z,99035.46
2019-04-07T18:52:01.793Z,99042.00
2019-04-07T18:57:16.982Z,99045.61
2019-04-07T19:02:30.039Z,99042.61
2019-04-07T19:07:38.944Z,99046.05
2019-04-07T19:13:01.947Z,99049.97
2019-04-07T19:18:01.818Z,99057.09
2019-04-07T19:23:26.295Z,99053.92
2019-04-07T19:28:35.704Z,99060.64
2019-04-07T19:33:56.644Z,99057.78
2019-04-07T19:39:21.417Z,99056.77
2019-04-07T19:44:35.557Z,99058.47
2019-04-07T19:49:34.724Z,99058.16
2019-04-07T19:54:42.005Z,99056.25
2019-04-07T19:59:52.696Z,99052.95
2019-04-07T20:05:05.851Z,99053.91
2019-04-07T20:10:16.401Z,99067.56
2019-04-07T20:15:26.181Z,99063.73
2019-04-07T20:20:43.503Z,99068.06
2019-04-07T20:25:49.393Z,99063.95
2019-04-07T20:30:56.825Z,99061.59
2019-04-07T20:36:19.380Z,99077.34
2019-04-07T20:41:22.699Z,99078.27
2019-04-07T20:46:34.372Z,99075.66
2019-04-07T20:51:58.464Z,99068.93
2019-04-07T20:57:04.997Z,99069.66
2019-04-07T21:02:27.579Z,99075.37
2019-04-07T21:07:40.872Z,99071.02
2019-04-07T21:12:56.872Z,99069.41
2019-04-07T21:18:04.154Z,99074.46
2019-04-07T21:23:16.161Z,99071.37
2019-04-07T21:28:39.029Z,99068.95
2019-04-07T21:33:57.824Z,99070.52
2019-04-07T21:39:09.946Z,99067.91
2019-04-07T21:44:32.626Z,99066.09
2019-04-07T21:49:51.470Z,99068.25
2019-04-07T21:55:08.092Z,99067.47
2019-04-07T22:00:21.249Z,99060.70
2019-04-07T22:05:41.525Z,99057.94
2019-04-07T22:10:49.926Z,99058.66
2019-04-07T22:15:57.927Z,99064.09
2019-04-07T22:20:59.196Z,99062.81
2019-04-07T22:26:04.591Z,99075.98
2019-04-07T22:31:12.757Z,99085.86
2019-04-07T22:36:17.179Z,99085.70
2019-04-07T22:41:22.091Z,99083.16
2019-04-07T22:46:28.957Z,99091.91
2019-04-07T22:51:33.669Z,99091.12
2019-04-07T22:56:40.888Z,99082.45
2019-04-07T23:01:45.942Z,99078.34
2019-04-07T23:06:52.143Z,99077.16
2019-04-07T23:11:56.818Z,99074.72
2019-04-07T23:17:01.676Z,99073.13
2019-04-07T23:22:06.262Z,99068.63
2019-04-07T23:27:10.947Z,99066.21
2019-04-07T23:32:15.843Z,99071.72
2019-04-07T23:37:20.516Z,99066.86
2019-04-07T23:42:25.056Z,99064.69
2019-04-07T23:47:29.479Z,99067.94
2019-04-07T23:52:33.993Z,99069.17
2019-04-07T23:57:38.415Z,99074.67
